Time;durP1;ratioP1;P1;durP2;ratioP2;P2;SDS_P1;SDS_P2;PMS_P1;PMS_P2;Temp;Humidity;BMP_temperature;BMP_pressure;BME280_temperature;BME280_humidity;BME280_pressure;Samples;Min_cycle;Max_cycle;Signal;HPM_P1;HPM_P2
2022/05/24 00:00:59;;;;;;;4.95;4.30;;;17.40;99.90;;;;;;4974768;28;92826;-72
2022/05/24 00:03:26;;;;;;;6.32;4.43;;;17.40;99.90;;;;;;4958122;28;100267;-72
2022/05/24 00:05:54;;;;;;;6.95;5.30;;;17.30;99.90;;;;;;4974407;28;95709;-72
2022/05/24 00:08:21;;;;;;;6.28;4.68;;;17.30;99.90;;;;;;4991038;28;94231;-72
2022/05/24 00:10:48;;;;;;;4.25;3.67;;;17.30;99.90;;;;;;4974787;28;94893;-73
2022/05/24 00:13:15;;;;;;;7.13;4.45;;;17.30;99.90;;;;;;4958404;28;92520;-72
2022/05/24 00:15:43;;;;;;;7.45;5.05;;;17.20;99.90;;;;;;4973947;28;95878;-72
2022/05/24 00:18:18;;;;;;;7.07;4.50;;;17.20;99.90;;;;;;4975649;28;93209;-73
2022/05/24 00:20:49;;;;;;;6.15;4.55;;;17.20;99.90;;;;;;4990829;28;92440;-72
2022/05/24 00:23:18;;;;;;;6.93;5.75;;;17.10;99.90;;;;;;4991261;28;92478;-72
2022/05/24 00:25:52;;;;;;;8.60;6.93;;;17.10;99.90;;;;;;4975330;28;93246;-72
2022/05/24 01:06:38;;;;;;;7.70;5.70;;;16.80;99.90;;;;;;4949780;28;93398;-72
2022/05/24 01:09:12;;;;;;;7.18;5.88;;;16.70;99.90;;;;;;4978295;28;92337;-72
2022/05/24 01:11:45;;;;;;;7.63;6.18;;;16.70;99.90;;;;;;4978801;28;91629;-73
2022/05/24 01:14:15;;;;;;;14.05;6.28;;;16.70;99.90;;;;;;4977011;28;94583;-72
2022/05/24 01:16:42;;;;;;;7.30;6.47;;;16.70;99.90;;;;;;4977995;28;94274;-72
2022/05/24 01:19:31;;;;;;;8.80;5.55;;;16.60;99.90;;;;;;4977282;28;95219;-72
2022/05/24 01:22:10;;;;;;;6.97;5.28;;;16.60;99.90;;;;;;4978507;28;92447;-72
2022/05/24 01:25:01;;;;;;;6.60;5.97;;;16.60;99.90;;;;;;4978270;28;93305;-72
2022/05/24 01:27:29;;;;;;;8.15;6.15;;;16.60;99.90;;;;;;4993128;28;92449;-72
2022/05/24 01:29:56;;;;;;;6.78;5.13;;;16.40;99.90;;;;;;4960591;28;92540;-72
2022/05/24 01:37:55;;;;;;;4.30;3.90;;;16.40;99.90;;;;;;4978513;28;92888;-72
2022/05/24 01:40:22;;;;;;;4.82;4.32;;;16.40;99.90;;;;;;4978287;28;92370;-72
2022/05/24 01:42:49;;;;;;;5.80;5.20;;;16.50;99.90;;;;;;4978192;28;92796;-72
2022/05/24 01:45:20;;;;;;;6.10;4.28;;;16.50;99.90;;;;;;4976778;28;95554;-72
2022/05/24 01:47:57;;;;;;;4.57;4.00;;;16.50;99.90;;;;;;4977652;28;95261;-72
2022/05/24 01:50:26;;;;;;;6.32;4.85;;;16.50;99.90;;;;;;4978144;28;92403;-72
2022/05/24 01:53:01;;;;;;;5.55;4.05;;;16.50;99.90;;;;;;4992703;28;92522;-72
2022/05/24 01:55:43;;;;;;;5.20;4.70;;;16.50;99.90;;;;;;4960224;28;96175;-72
2022/05/24 01:58:13;;;;;;;4.57;4.18;;;16.40;99.90;;;;;;4977992;28;93046;-73
2022/05/24 02:00:46;;;;;;;5.60;4.90;;;16.30;99.90;;;;;;4977543;28;92482;-72
2022/05/24 02:03:17;;;;;;;6.53;5.57;;;16.30;99.90;;;;;;4978551;28;92101;-72
2022/05/24 02:05:51;;;;;;;6.40;5.45;;;16.20;99.90;;;;;;4975847;28;92971;-73
2022/05/24 02:08:18;;;;;;;8.23;5.88;;;16.20;99.90;;;;;;4976183;28;92959;-73
2022/05/24 02:10:48;;;;;;;7.65;6.93;;;16.10;99.90;;;;;;4991734;28;95281;-73
2022/05/24 02:13:50;;;;;;;10.43;7.32;;;16.10;99.90;;;;;;4977331;28;92451;-73
2022/05/24 02:16:22;;;;;;;9.30;8.32;;;16.10;99.90;;;;;;4969083;28;93272;-72
2022/05/24 02:18:52;;;;;;;11.18;8.27;;;15.90;99.90;;;;;;4975908;28;97275;-73
2022/05/24 02:21:22;;;;;;;12.87;9.93;;;15.90;99.90;;;;;;4992224;28;92407;-73
2022/05/24 02:23:50;;;;;;;11.35;10.15;;;15.90;99.90;;;;;;4976146;28;92885;-73
2022/05/24 02:26:20;;;;;;;11.60;10.48;;;15.90;99.90;;;;;;4975493;28;93199;-72
2022/05/24 02:28:53;;;;;;;14.00;11.60;;;15.90;99.90;;;;;;4975744;28;92936;-72
2022/05/24 02:31:23;;;;;;;16.08;12.45;;;16.00;99.90;;;;;;4975486;28;92625;-73
2022/05/24 02:33:50;;;;;;;13.55;12.15;;;16.00;99.90;;;;;;4976676;28;92447;-72
2022/05/24 02:36:18;;;;;;;13.75;11.38;;;16.00;99.90;;;;;;4975247;28;95742;-72
2022/05/24 02:38:46;;;;;;;12.45;11.25;;;16.10;99.90;;;;;;4976407;28;95188;-72
2022/05/24 02:41:31;;;;;;;12.73;11.40;;;16.10;99.90;;;;;;4975525;28;92540;-72
2022/05/24 02:44:04;;;;;;;13.45;10.98;;;16.10;99.90;;;;;;4976682;28;92356;-72
2022/05/24 02:46:33;;;;;;;13.35;11.30;;;16.10;99.90;;;;;;4976774;28;93060;-72
2022/05/24 02:49:00;;;;;;;14.43;12.10;;;16.10;99.90;;;;;;4974801;28;95593;-73
2022/05/24 02:51:27;;;;;;;12.68;11.18;;;16.10;99.90;;;;;;4976520;28;92394;-72
2022/05/24 02:53:54;;;;;;;13.25;11.80;;;16.10;99.90;;;;;;4976605;28;91723;-72
2022/05/24 02:56:22;;;;;;;12.80;11.40;;;16.10;99.90;;;;;;4974630;28;93177;-72
2022/05/24 02:58:49;;;;;;;17.30;12.40;;;16.10;99.90;;;;;;4976035;28;93129;-72
2022/05/24 03:01:22;;;;;;;15.07;13.65;;;16.10;99.90;;;;;;4975116;28;94793;-72
2022/05/24 03:03:51;;;;;;;14.90;13.37;;;16.10;99.90;;;;;;4974870;28;92461;-72
2022/05/24 03:06:20;;;;;;;15.55;13.02;;;16.10;99.90;;;;;;4974341;28;95690;-72
2022/05/24 03:14:21;;;;;;;22.90;16.50;;;16.10;99.90;;;;;;4974958;28;92491;-72
2022/05/24 03:16:52;;;;;;;20.95;16.63;;;16.20;99.90;;;;;;4975807;28;93247;-72
2022/05/24 03:19:21;;;;;;;21.52;17.35;;;16.20;99.90;;;;;;4976525;28;93023;-72
2022/05/24 03:21:49;;;;;;;21.58;18.33;;;16.20;99.90;;;;;;4991162;28;92686;-72
2022/05/24 03:24:16;;;;;;;21.20;18.50;;;16.20;99.90;;;;;;4976040;28;92452;-72
2022/05/24 03:26:43;;;;;;;22.67;18.35;;;16.20;99.90;;;;;;4974600;28;95754;-72
2022/05/24 03:29:10;;;;;;;28.08;21.65;;;16.20;99.90;;;;;;4990622;28;98114;-72
2022/05/24 03:31:37;;;;;;;25.80;20.73;;;16.30;99.90;;;;;;4975927;28;92367;-72
2022/05/24 03:34:04;;;;;;;24.20;19.52;;;16.30;99.90;;;;;;4958429;28;92525;-72
2022/05/24 03:36:31;;;;;;;24.63;19.80;;;16.40;99.90;;;;;;4974307;28;95798;-72
2022/05/24 03:38:58;;;;;;;24.80;22.10;;;16.40;99.90;;;;;;4975410;28;93009;-72
2022/05/24 03:41:25;;;;;;;24.73;21.67;;;16.40;99.90;;;;;;4974638;28;92492;-72
2022/05/24 03:43:52;;;;;;;26.98;22.52;;;16.40;99.90;;;;;;4991107;28;91794;-72
2022/05/24 03:46:20;;;;;;;24.38;20.73;;;16.40;99.90;;;;;;4975809;28;93267;-72
2022/05/24 03:48:47;;;;;;;27.63;23.00;;;16.40;99.90;;;;;;4990519;28;95697;-72
2022/05/24 03:51:17;;;;;;;26.23;23.42;;;16.50;99.90;;;;;;4989310;28;94879;-72
2022/05/24 03:53:43;;;;;;;27.10;23.33;;;16.50;99.90;;;;;;4974195;28;92561;-72
2022/05/24 03:56:11;;;;;;;23.90;21.40;;;16.50;99.90;;;;;;4957453;28;98703;-72
2022/05/24 03:58:38;;;;;;;24.70;21.35;;;16.50;99.90;;;;;;4975448;28;93154;-72
2022/05/24 04:01:05;;;;;;;28.23;24.67;;;16.50;99.90;;;;;;4974069;28;92431;-72
2022/05/24 04:03:32;;;;;;;24.80;22.02;;;16.50;99.90;;;;;;4974182;28;93199;-72
2022/05/24 04:05:59;;;;;;;27.23;22.80;;;16.50;99.90;;;;;;4957446;28;94604;-72
2022/05/24 04:08:27;;;;;;;25.15;22.02;;;16.60;99.90;;;;;;4974327;28;93076;-72
2022/05/24 04:11:06;;;;;;;27.42;24.05;;;16.60;99.90;;;;;;4990044;28;92632;-72
2022/05/24 04:13:34;;;;;;;25.02;22.25;;;16.70;99.90;;;;;;4974264;28;93017;-72
2022/05/24 04:16:01;;;;;;;25.70;23.00;;;16.60;99.90;;;;;;4973710;28;95508;-71
2022/05/24 04:18:28;;;;;;;25.85;23.13;;;16.70;99.90;;;;;;4990152;28;95499;-72
2022/05/24 04:20:55;;;;;;;27.98;22.88;;;16.70;99.90;;;;;;4975415;28;92358;-72
2022/05/24 04:23:25;;;;;;;25.17;22.38;;;16.70;99.90;;;;;;4975210;28;92433;-72
2022/05/24 04:25:53;;;;;;;24.25;21.60;;;16.80;99.90;;;;;;4990275;28;95897;-72
2022/05/24 04:28:22;;;;;;;27.10;20.45;;;16.80;99.90;;;;;;4957456;28;97304;-72
2022/05/24 04:30:50;;;;;;;26.23;21.88;;;16.80;99.90;;;;;;4973719;28;92560;-72
2022/05/24 04:33:18;;;;;;;24.10;21.00;;;16.90;99.90;;;;;;4975248;28;91738;-72
2022/05/24 04:35:45;;;;;;;25.30;21.25;;;16.90;99.90;;;;;;4975084;28;92983;-72
2022/05/24 04:38:13;;;;;;;23.40;21.00;;;16.90;99.90;;;;;;4974689;28;93061;-72
2022/05/24 04:43:25;;;;;;;23.35;20.77;;;17.00;99.90;;;;;;4973610;28;92494;-72
2022/05/24 04:45:53;;;;;;;23.20;20.83;;;17.00;99.90;;;;;;4989884;28;94576;-72
2022/05/24 04:48:24;;;;;;;23.63;20.80;;;17.10;99.90;;;;;;4975144;28;93070;-72
2022/05/24 04:50:55;;;;;;;24.48;20.63;;;17.10;99.90;;;;;;4975059;28;92420;-72
2022/05/24 04:53:24;;;;;;;23.48;20.75;;;17.10;99.90;;;;;;4974921;28;92467;-72
2022/05/24 04:55:51;;;;;;;23.35;20.88;;;17.20;99.90;;;;;;4974769;28;93295;-72
2022/05/24 04:58:19;;;;;;;24.88;19.80;;;17.20;99.90;;;;;;4990084;28;93035;-72
2022/05/24 05:00:48;;;;;;;22.27;19.25;;;17.30;99.90;;;;;;4973498;28;92399;-72
2022/05/24 05:03:20;;;;;;;20.92;18.80;;;17.40;99.90;;;;;;4973287;28;92591;-72
2022/05/24 05:05:49;;;;;;;21.50;19.20;;;17.50;99.90;;;;;;4972071;28;95957;-72
2022/05/24 05:08:17;;;;;;;21.20;19.05;;;17.50;99.90;;;;;;4973999;28;95508;-72
2022/05/24 05:10:44;;;;;;;21.58;18.77;;;17.60;99.90;;;;;;4973219;28;92543;-72
2022/05/24 05:13:15;;;;;;;21.67;19.35;;;17.60;99.90;;;;;;4973687;28;92485;-72
2022/05/24 05:15:42;;;;;;;22.80;19.33;;;17.60;99.90;;;;;;4974771;28;92982;-72
2022/05/24 05:18:13;;;;;;;24.10;21.50;;;17.60;99.90;;;;;;4974337;28;92378;-72
2022/05/24 05:20:41;;;;;;;24.45;20.83;;;17.70;99.90;;;;;;4977857;28;92484;-72
2022/05/24 05:23:11;;;;;;;24.75;20.95;;;17.70;99.90;;;;;;4975968;28;109154;-72
2022/05/24 05:25:39;;;;;;;25.90;21.65;;;17.60;99.90;;;;;;4977645;28;93297;-72
2022/05/24 05:28:06;;;;;;;25.60;22.30;;;17.60;99.90;;;;;;4976241;28;93118;-72
2022/05/24 05:33:19;;;;;;;28.02;22.33;;;17.70;99.90;;;;;;4977930;28;93169;-72
2022/05/24 05:35:46;;;;;;;25.08;22.55;;;17.70;99.90;;;;;;4992754;28;95862;-72
2022/05/24 05:38:14;;;;;;;26.55;21.35;;;17.80;99.90;;;;;;4976082;28;92907;-72
2022/05/24 05:40:41;;;;;;;23.80;21.00;;;17.80;99.90;;;;;;4977725;28;92521;-72
2022/05/24 05:43:09;;;;;;;23.73;20.00;;;17.90;99.90;;;;;;4977485;28;92449;-72
2022/05/24 05:45:37;;;;;;;25.88;21.38;;;18.00;99.90;;;;;;4977331;28;93307;-72
2022/05/24 05:48:04;;;;;;;26.75;20.88;;;18.00;99.90;;;;;;4975962;28;95587;-72
2022/05/24 05:50:31;;;;;;;24.73;21.45;;;18.00;99.90;;;;;;4976141;28;92521;-72
2022/05/24 05:53:01;;;;;;;24.33;20.90;;;18.10;99.90;;;;;;4977614;28;92947;-72
2022/05/24 05:55:28;;;;;;;24.40;20.33;;;18.10;99.90;;;;;;4975711;28;96597;-72
2022/05/24 05:57:55;;;;;;;26.50;23.67;;;18.00;99.90;;;;;;4977297;28;95409;-72
2022/05/24 06:00:22;;;;;;;23.10;20.67;;;18.10;99.90;;;;;;4977165;28;92420;-72
2022/05/24 06:02:49;;;;;;;24.30;18.50;;;18.10;99.90;;;;;;4975785;28;92641;-72
2022/05/24 06:05:16;;;;;;;27.17;20.63;;;18.10;99.90;;;;;;4975655;28;92871;-72
2022/05/24 06:07:43;;;;;;;24.33;19.52;;;18.20;99.90;;;;;;4991843;28;92995;-72
2022/05/24 06:10:12;;;;;;;23.92;20.85;;;18.20;99.90;;;;;;4976642;28;92632;-72
2022/05/24 06:12:39;;;;;;;23.02;19.10;;;18.30;99.50;;;;;;4977243;28;91724;-72
2022/05/24 06:15:07;;;;;;;22.33;19.98;;;18.30;99.40;;;;;;4975511;28;94236;-72
2022/05/24 06:17:43;;;;;;;22.65;18.83;;;18.40;99.30;;;;;;4975220;28;95984;-72
2022/05/24 06:20:15;;;;;;;23.20;19.25;;;18.40;99.40;;;;;;4975756;28;94939;-72
2022/05/24 06:22:42;;;;;;;20.17;17.00;;;18.30;99.40;;;;;;4975554;28;92590;-72
2022/05/24 06:25:12;;;;;;;25.00;17.25;;;18.40;99.30;;;;;;4975515;28;93150;-72
2022/05/24 06:27:39;;;;;;;19.42;16.52;;;18.50;99.10;;;;;;4975445;28;93089;-72
2022/05/24 06:30:07;;;;;;;19.42;17.35;;;18.80;99.10;;;;;;4959035;28;92429;-72
2022/05/24 06:32:34;;;;;;;17.40;15.63;;;19.10;98.30;;;;;;4974907;28;92506;-72
2022/05/24 06:35:01;;;;;;;19.90;16.30;;;19.20;97.90;;;;;;4975149;28;95815;-72
2022/05/24 06:37:30;;;;;;;18.38;16.33;;;19.20;97.80;;;;;;4975258;28;95786;-72
2022/05/24 06:39:57;;;;;;;18.15;13.95;;;19.20;97.70;;;;;;4991850;28;92452;-72
2022/05/24 06:42:24;;;;;;;14.95;13.10;;;19.10;97.80;;;;;;4975326;28;92790;-72
2022/05/24 06:44:51;;;;;;;17.08;14.45;;;19.00;98.00;;;;;;4975187;28;95581;-72
2022/05/24 06:47:18;;;;;;;18.88;15.68;;;18.90;97.90;;;;;;4958591;28;98250;-72
2022/05/24 06:49:48;;;;;;;22.98;15.88;;;18.80;98.20;;;;;;4975210;28;92501;-72
2022/05/24 06:52:15;;;;;;;18.58;15.77;;;18.60;98.30;;;;;;4975388;28;93100;-72
2022/05/24 06:54:43;;;;;;;20.27;18.17;;;18.50;98.50;;;;;;4958980;28;93287;-72
2022/05/24 06:57:10;;;;;;;18.05;15.07;;;18.50;98.50;;;;;;4974699;28;95826;-72
2022/05/24 07:02:25;;;;;;;18.88;14.95;;;18.40;98.60;;;;;;4976531;28;91717;-72
2022/05/24 07:05:06;;;;;;;16.70;14.80;;;18.40;98.70;;;;;;4976191;28;92458;-72
2022/05/24 07:07:35;;;;;;;19.63;15.75;;;18.40;98.50;;;;;;4974477;28;93080;-73
2022/05/24 07:10:04;;;;;;;18.27;14.85;;;18.40;98.50;;;;;;4974946;28;94863;-72
2022/05/24 07:12:31;;;;;;;16.80;13.52;;;18.50;98.40;;;;;;4958359;28;92501;-72
2022/05/24 07:14:59;;;;;;;18.55;16.00;;;18.60;98.30;;;;;;4974752;28;93132;-73
2022/05/24 07:17:26;;;;;;;16.92;14.90;;;18.60;98.20;;;;;;4975747;28;92937;-72
2022/05/24 07:19:53;;;;;;;16.25;14.65;;;18.70;98.10;;;;;;4974719;28;92554;-72
2022/05/24 07:22:20;;;;;;;16.05;14.07;;;18.70;97.90;;;;;;4974449;28;92499;-72
2022/05/24 07:24:49;;;;;;;17.35;14.13;;;18.70;98.00;;;;;;4975993;28;92845;-73
2022/05/24 07:27:19;;;;;;;19.73;15.60;;;18.70;97.90;;;;;;4974845;28;93146;-73
2022/05/24 07:29:47;;;;;;;17.70;14.55;;;18.70;98.00;;;;;;4958283;28;92619;-73
2022/05/24 07:32:14;;;;;;;15.85;14.02;;;18.60;98.00;;;;;;4975957;28;92439;-73
2022/05/24 07:34:41;;;;;;;20.85;15.10;;;18.60;97.90;;;;;;4974331;28;95368;-72
2022/05/24 07:37:15;;;;;;;17.90;15.05;;;18.70;98.00;;;;;;4975728;28;95556;-72
2022/05/24 07:39:42;;;;;;;15.65;13.27;;;18.70;98.00;;;;;;4974298;28;92457;-72
2022/05/24 07:47:41;;;;;;;16.77;12.20;;;18.80;97.60;;;;;;4975386;28;93028;-73
2022/05/24 07:50:09;;;;;;;15.70;13.93;;;18.80;97.60;;;;;;4974418;28;92456;-73
2022/05/24 07:52:36;;;;;;;18.02;12.98;;;18.90;97.50;;;;;;4974532;28;92235;-72
2022/05/24 07:55:03;;;;;;;16.35;12.35;;;18.90;97.40;;;;;;4975342;28;92498;-72
2022/05/24 07:57:30;;;;;;;17.58;13.02;;;19.00;97.40;;;;;;4990344;28;92965;-72
2022/05/24 08:00:03;;;;;;;16.05;11.27;;;19.10;97.20;;;;;;4974543;28;94864;-73
2022/05/24 08:02:38;;;;;;;18.30;12.93;;;19.10;97.00;;;;;;4973880;28;92447;-73
2022/05/24 08:05:06;;;;;;;16.63;13.07;;;19.20;96.90;;;;;;4975195;28;93409;-73
2022/05/24 08:07:33;;;;;;;14.85;13.15;;;19.20;96.80;;;;;;4989861;28;92991;-72
2022/05/24 08:10:00;;;;;;;15.20;11.95;;;19.20;96.60;;;;;;4973918;28;92497;-72
2022/05/24 08:12:27;;;;;;;15.52;13.65;;;19.30;96.60;;;;;;4957789;28;92887;-72
2022/05/24 08:14:54;;;;;;;17.98;12.82;;;19.40;96.50;;;;;;4973865;28;95739;-72
2022/05/24 08:17:21;;;;;;;13.90;12.48;;;19.40;96.40;;;;;;4990616;28;95598;-72
2022/05/24 08:19:48;;;;;;;14.88;11.20;;;19.30;96.10;;;;;;4990450;28;92348;-72
2022/05/24 08:22:15;;;;;;;12.60;10.75;;;19.30;96.10;;;;;;4975475;28;92815;-72
2022/05/24 08:24:42;;;;;;;14.02;12.68;;;19.20;96.20;;;;;;4973634;28;95665;-72
2022/05/24 08:27:11;;;;;;;14.13;11.52;;;19.20;96.40;;;;;;4975035;28;95174;-72
2022/05/24 08:29:38;;;;;;;13.38;12.07;;;19.20;96.30;;;;;;4974971;28;92379;-72
2022/05/24 08:32:05;;;;;;;12.05;10.25;;;19.30;96.00;;;;;;4975313;28;92514;-73
2022/05/24 08:34:32;;;;;;;12.43;11.20;;;19.40;96.00;;;;;;4974962;28;93273;-73
2022/05/24 08:37:00;;;;;;;11.25;10.13;;;19.80;95.90;;;;;;4974915;28;92922;-73
2022/05/24 08:39:27;;;;;;;12.32;10.63;;;20.20;95.50;;;;;;4973687;28;92427;-72
2022/05/24 08:42:16;;;;;;;10.45;9.18;;;20.40;94.40;;;;;;4974076;28;91611;-73
2022/05/24 08:50:31;;;;;;;9.98;8.40;;;20.70;93.40;;;;;;4973874;28;94918;-73
2022/05/24 08:53:08;;;;;;;9.32;8.30;;;20.70;92.90;;;;;;4975682;28;92429;-73
2022/05/24 08:55:40;;;;;;;8.55;7.72;;;21.00;92.80;;;;;;4978280;28;93323;-72
2022/05/24 08:58:14;;;;;;;10.90;9.57;;;21.20;91.80;;;;;;4978767;28;93463;-73
2022/05/24 09:00:43;;;;;;;9.93;8.13;;;21.60;91.10;;;;;;4978993;28;92431;-73
2022/05/24 09:03:10;;;;;;;11.73;8.18;;;22.00;90.70;;;;;;4977387;28;92474;-73
2022/05/24 09:05:38;;;;;;;8.95;7.72;;;22.10;90.10;;;;;;4977382;28;93328;-73
2022/05/24 09:08:20;;;;;;;9.85;8.90;;;22.10;89.60;;;;;;4978356;28;93193;-73
2022/05/24 09:10:57;;;;;;;10.07;9.05;;;22.00;89.50;;;;;;4978712;28;93012;-73
2022/05/24 09:14:01;;;;;;;9.18;8.07;;;22.00;89.80;;;;;;4994087;28;92536;-73
2022/05/24 09:16:58;;;;;;;11.70;8.32;;;22.20;88.40;;;;;;4955408;28;95486;-73
2022/05/24 09:19:32;;;;;;;8.52;7.03;;;22.40;88.60;;;;;;4978418;28;95557;-73
2022/05/24 09:22:06;;;;;;;8.52;7.70;;;22.50;88.70;;;;;;4961004;28;92536;-73
2022/05/24 09:24:36;;;;;;;9.60;7.35;;;22.50;88.10;;;;;;4978806;28;92420;-73
2022/05/24 09:27:15;;;;;;;7.63;6.75;;;22.60;87.00;;;;;;4993536;28;92552;-73
2022/05/24 09:30:06;;;;;;;6.97;6.28;;;22.70;85.80;;;;;;4992987;28;95441;-73
2022/05/24 09:32:38;;;;;;;8.10;6.60;;;22.70;84.80;;;;;;4977053;28;92526;-73
2022/05/24 09:35:20;;;;;;;7.18;6.50;;;22.60;84.80;;;;;;4978808;28;91764;-73
2022/05/24 09:38:08;;;;;;;8.88;5.93;;;22.20;83.20;;;;;;4976502;28;95703;-73
2022/05/24 09:40:56;;;;;;;7.03;6.30;;;21.90;84.20;;;;;;4993529;28;92545;-73
2022/05/24 09:43:29;;;;;;;5.75;5.15;;;21.90;84.50;;;;;;4975680;28;95018;-73
2022/05/24 09:46:36;;;;;;;7.45;6.68;;;21.80;84.90;;;;;;4978035;28;92880;-73
2022/05/24 09:49:25;;;;;;;7.35;6.55;;;21.80;84.30;;;;;;4936268;28;96698;-73
2022/05/24 09:51:56;;;;;;;6.85;4.15;;;21.90;85.00;;;;;;4936582;28;93010;-73
2022/05/24 09:54:27;;;;;;;5.18;4.30;;;22.00;85.40;;;;;;4956673;28;92537;-72
2022/05/24 09:57:08;;;;;;;5.95;4.60;;;22.10;83.60;;;;;;4977781;28;92466;-73
2022/05/24 09:59:39;;;;;;;5.85;4.75;;;22.20;82.40;;;;;;4978055;28;93260;-73
2022/05/24 10:02:28;;;;;;;8.02;7.28;;;22.00;83.90;;;;;;4978301;28;92996;-73
2022/05/24 10:04:56;;;;;;;5.30;4.90;;;21.70;85.10;;;;;;4992421;28;92492;-73
2022/05/24 10:07:35;;;;;;;8.32;5.15;;;21.50;85.80;;;;;;4975893;28;92530;-73
2022/05/24 10:10:22;;;;;;;9.43;7.07;;;21.30;88.10;;;;;;4976057;28;95598;-73
2022/05/24 10:13:21;;;;;;;8.88;6.40;;;20.90;90.80;;;;;;4992778;28;95920;-73
2022/05/24 10:16:12;;;;;;;8.20;6.72;;;20.60;91.30;;;;;;4977789;28;92398;-73
2022/05/24 10:18:53;;;;;;;8.57;7.20;;;20.50;91.70;;;;;;4977804;28;92454;-73
2022/05/24 10:21:38;;;;;;;7.95;5.65;;;20.60;92.00;;;;;;4992613;28;93374;-73
2022/05/24 10:24:33;;;;;;;7.80;6.75;;;21.00;91.40;;;;;;4977296;28;92772;-73
2022/05/24 10:27:03;;;;;;;6.60;5.93;;;21.40;91.20;;;;;;4977395;28;92494;-73
2022/05/24 10:29:33;;;;;;;7.60;6.68;;;21.70;90.40;;;;;;4976357;28;91687;-73
2022/05/24 10:32:07;;;;;;;5.57;5.15;;;21.90;90.00;;;;;;4975582;28;95707;-73
2022/05/24 10:38:19;;;;;;;6.22;5.70;;;21.80;86.50;;;;;;4974389;28;95233;-73
2022/05/24 10:41:10;;;;;;;6.30;4.55;;;21.60;87.40;;;;;;4992380;28;92545;-73
2022/05/24 10:44:03;;;;;;;6.13;5.53;;;21.40;87.70;;;;;;4992251;28;93077;-73
2022/05/24 10:46:45;;;;;;;5.00;4.55;;;21.30;88.80;;;;;;4975504;28;95988;-73
2022/05/24 10:49:25;;;;;;;6.18;5.57;;;21.30;87.30;;;;;;4959696;28;92494;-73
2022/05/24 10:52:04;;;;;;;4.65;4.18;;;21.50;86.80;;;;;;4975817;28;92561;-73
2022/05/24 10:55:02;;;;;;;2.72;2.08;;;21.50;85.40;;;;;;4991692;28;95622;-73
2022/05/24 10:57:42;;;;;;;3.25;2.45;;;21.70;82.50;;;;;;4975815;28;93993;-73
2022/05/24 11:00:41;;;;;;;3.63;3.35;;;21.80;80.80;;;;;;4977036;28;92838;-73
2022/05/24 11:03:32;;;;;;;2.50;2.30;;;21.90;80.60;;;;;;4958808;28;92592;-73
2022/05/24 11:06:05;;;;;;;2.55;2.20;;;22.10;80.40;;;;;;4990517;28;95647;-73
2022/05/24 11:08:44;;;;;;;;;;;22.30;79.70;;;;;;4976888;28;98113;-73
2022/05/24 11:11:35;;;;;;;1.02;1.02;;;21.80;79.30;;;;;;4977713;28;92476;-73
2022/05/24 11:14:31;;;;;;;1.67;0.95;;;21.70;77.70;;;;;;4976545;28;92503;-73
2022/05/24 11:16:59;;;;;;;1.42;1.08;;;21.30;79.30;;;;;;4971426;28;95862;-73
2022/05/24 11:19:36;;;;;;;2.05;1.95;;;20.90;83.30;;;;;;4974901;28;95505;-73
2022/05/24 11:22:29;;;;;;;2.75;2.55;;;20.70;86.20;;;;;;4976541;28;92537;-73
2022/05/24 11:25:08;;;;;;;3.45;2.30;;;20.40;89.10;;;;;;4991546;28;91814;-73
2022/05/24 11:27:40;;;;;;;2.22;2.03;;;20.20;90.20;;;;;;4976491;28;93296;-73
2022/05/24 11:30:18;;;;;;;2.88;1.60;;;20.00;90.40;;;;;;4974434;28;95773;-72
2022/05/24 11:32:52;;;;;;;3.05;2.95;;;20.00;90.30;;;;;;4990597;28;94923;-73
2022/05/24 11:35:19;;;;;;;1.80;1.70;;;19.90;90.40;;;;;;4975129;28;92520;-72
2022/05/24 11:37:55;;;;;;;2.92;2.65;;;19.80;90.80;;;;;;4976057;28;93323;-73
2022/05/24 11:40:36;;;;;;;1.40;1.30;;;19.80;90.50;;;;;;4976419;28;92919;-73
2022/05/24 11:43:28;;;;;;;3.13;2.92;;;19.90;90.50;;;;;;4974898;28;92546;-73
2022/05/24 11:46:02;;;;;;;2.28;1.50;;;19.80;90.90;;;;;;4973677;28;92471;-73
2022/05/24 11:48:53;;;;;;;1.58;1.48;;;19.90;91.30;;;;;;4976514;28;93257;-72
2022/05/24 11:51:31;;;;;;;3.35;3.15;;;20.10;91.20;;;;;;4976536;28;93039;-72
2022/05/24 11:54:00;;;;;;;2.33;2.17;;;20.30;90.90;;;;;;4975783;28;92369;-72
2022/05/24 11:56:29;;;;;;;4.05;2.47;;;20.30;90.60;;;;;;4991383;28;92554;-72
2022/05/24 11:59:04;;;;;;;2.95;1.63;;;20.30;90.80;;;;;;4989480;28;96390;-72
2022/05/24 12:01:42;;;;;;;2.08;1.80;;;20.20;90.50;;;;;;4974407;28;98183;-72
2022/05/24 12:10:04;;;;;;;1.98;1.88;;;20.10;90.90;;;;;;4974433;28;94994;-72
2022/05/24 12:12:48;;;;;;;3.22;1.80;;;20.20;90.70;;;;;;4991140;28;92918;-72
2022/05/24 12:15:22;;;;;;;2.03;1.63;;;20.40;90.50;;;;;;4975939;28;92445;-72
2022/05/24 12:17:58;;;;;;;2.22;2.13;;;20.50;90.40;;;;;;4974876;28;91799;-72
2022/05/24 12:20:28;;;;;;;3.08;2.88;;;20.70;90.40;;;;;;4973803;28;95799;-72
2022/05/24 12:23:04;;;;;;;3.30;3.00;;;20.90;90.20;;;;;;4974316;28;95239;-72
2022/05/24 12:25:58;;;;;;;3.15;2.95;;;21.10;89.50;;;;;;4988966;28;94794;-72
2022/05/24 12:28:37;;;;;;;2.35;1.90;;;21.30;88.80;;;;;;4957168;28;92484;-72
2022/05/24 12:31:13;;;;;;;2.88;2.67;;;21.30;88.90;;;;;;4990674;28;93353;-72
2022/05/24 12:33:46;;;;;;;4.00;2.72;;;21.40;87.60;;;;;;4975517;28;92802;-72
2022/05/24 12:36:22;;;;;;;2.50;1.73;;;21.30;87.60;;;;;;4974008;28;92497;-72
2022/05/24 12:39:00;;;;;;;2.78;1.20;;;21.40;88.10;;;;;;4990564;28;92578;-72
2022/05/24 12:41:34;;;;;;;2.60;2.40;;;21.50;87.10;;;;;;4975598;28;93006;-72
2022/05/24 12:44:24;;;;;;;2.83;2.63;;;21.60;86.80;;;;;;4976056;28;92994;-72
2022/05/24 12:46:53;;;;;;;2.80;1.45;;;21.70;85.50;;;;;;4974031;28;92485;-72
2022/05/24 12:49:24;;;;;;;1.77;1.63;;;21.80;86.10;;;;;;4990511;28;92508;-72
2022/05/24 12:52:12;;;;;;;4.10;2.08;;;21.90;85.60;;;;;;4972308;28;102006;-72
2022/05/24 12:55:00;;;;;;;2.00;1.33;;;21.90;85.50;;;;;;4973813;28;97907;-72
2022/05/24 12:57:39;;;;;;;2.13;1.92;;;21.90;84.60;;;;;;4975657;28;92375;-72
2022/05/24 13:00:08;;;;;;;1.65;1.30;;;21.80;85.10;;;;;;4975028;28;92547;-72
2022/05/24 13:02:37;;;;;;;2.58;1.73;;;22.00;86.00;;;;;;4993897;28;93347;-72
2022/05/24 13:05:07;;;;;;;2.88;2.67;;;22.10;85.00;;;;;;4988233;28;93024;-73
2022/05/24 13:07:42;;;;;;;3.58;1.33;;;22.20;84.50;;;;;;4994551;28;92389;-73
2022/05/24 13:10:19;;;;;;;4.82;2.78;;;22.00;84.00;;;;;;4994022;28;92089;-73
2022/05/24 13:13:13;;;;;;;3.00;2.85;;;21.60;85.00;;;;;;4994796;28;94594;-73
2022/05/24 13:15:44;;;;;;;1.58;1.00;;;21.30;86.80;;;;;;4992714;28;92933;-73
2022/05/24 13:18:26;;;;;;;2.10;0.93;;;20.80;86.80;;;;;;4994118;28;94807;-73
2022/05/24 13:20:57;;;;;;;1.80;1.23;;;20.60;89.20;;;;;;4995165;28;92477;-73
2022/05/24 13:23:34;;;;;;;1.70;1.60;;;20.50;88.90;;;;;;4994622;28;93187;-72
2022/05/24 13:26:04;;;;;;;1.88;1.77;;;20.50;88.50;;;;;;4994799;28;93018;-72
2022/05/24 13:28:51;;;;;;;2.50;2.40;;;20.60;88.20;;;;;;4994644;28;92431;-72
2022/05/24 13:34:26;;;;;;;1.30;0.90;;;20.70;89.70;;;;;;4994522;28;93446;-72
2022/05/24 13:36:57;;;;;;;2.25;2.25;;;20.90;87.70;;;;;;4977238;28;94114;-72
2022/05/24 13:39:28;;;;;;;1.70;1.60;;;21.10;87.20;;;;;;4993087;28;92555;-72
2022/05/24 13:42:25;;;;;;;1.65;1.10;;;21.20;87.30;;;;;;4998087;28;92379;-72
2022/05/24 13:45:19;;;;;;;2.13;2.03;;;21.40;86.80;;;;;;4996634;28;95856;-72
2022/05/24 13:47:52;;;;;;;3.15;2.67;;;21.40;86.60;;;;;;4980045;28;96534;-72
2022/05/24 13:50:33;;;;;;;1.63;1.50;;;21.40;86.60;;;;;;4997958;28;92354;-72
2022/05/24 13:53:04;;;;;;;3.13;2.13;;;21.50;86.50;;;;;;4998000;28;92430;-72
2022/05/24 13:55:40;;;;;;;1.95;1.85;;;21.30;86.20;;;;;;4997649;28;92967;-72
2022/05/24 13:58:16;;;;;;;1.95;1.65;;;21.50;86.40;;;;;;4996247;28;93029;-72
2022/05/24 14:00:51;;;;;;;2.55;2.35;;;21.50;85.60;;;;;;4997985;28;93774;-72
2022/05/24 14:03:24;;;;;;;2.25;1.95;;;21.40;85.80;;;;;;4998096;28;91724;-72
2022/05/24 14:06:12;;;;;;;2.10;1.90;;;21.50;86.00;;;;;;4979687;28;97274;-72
2022/05/24 14:08:46;;;;;;;2.53;1.98;;;21.60;85.10;;;;;;4996441;28;93149;-72
2022/05/24 14:11:16;;;;;;;1.67;1.50;;;21.60;85.20;;;;;;4994741;28;94910;-72
2022/05/24 14:13:44;;;;;;;2.08;1.55;;;21.70;84.20;;;;;;4997408;28;92485;-72
2022/05/24 14:16:12;;;;;;;2.42;1.90;;;21.80;84.00;;;;;;4997238;28;93153;-72
2022/05/24 14:18:40;;;;;;;2.53;1.77;;;21.70;82.50;;;;;;4996249;28;95541;-72
2022/05/24 14:21:09;;;;;;;2.28;2.08;;;21.50;82.50;;;;;;4997270;28;92415;-73
2022/05/24 14:23:36;;;;;;;1.85;1.20;;;21.30;81.10;;;;;;4995920;28;92539;-73
2022/05/24 14:26:04;;;;;;;1.15;1.05;;;21.00;80.90;;;;;;4997073;28;93254;-73
2022/05/24 14:28:32;;;;;;;1.45;1.35;;;20.80;81.40;;;;;;4997220;28;92778;-73